< < Back
Terminal Aerodrome Forecast


Current Version              Previous Versions:   1  2  3  4  5  6  7  8  9  

Terminal Aerodrome Forecast

334
FTUS42 KJAX 212300
TAFSSI
TAF
KSSI 212329Z 2200/2224 VRB02KT P6SM SKC
     FM221200 36010KT P6SM SKC=

Latest METAR

699
SAUS70 KWBC 220158
MTRSSI
METAR KSSI 220153Z AUTO 00000KT 10SM CLR 18/16 A2996 RMK AO2 SLP144
T01830161


USA.gov is the U.S. government's official web portal to all federal, state and local government web resources and services.